createdAt,value
2017-05-31T00:05:20.758Z,101989.53
2017-05-31T00:10:49.270Z,101984.71
2017-05-31T00:13:15.572Z,101987.84
2017-05-31T00:15:41.851Z,101993.67
2017-05-31T00:18:08.246Z,101990.59
2017-05-31T00:20:34.541Z,101996.48
2017-05-31T00:25:57.489Z,101995.66
2017-05-31T00:28:23.818Z,102006.05
2017-05-31T00:30:50.198Z,102007.45
2017-05-31T00:33:16.485Z,102002.20
2017-05-31T00:35:42.753Z,102012.45
2017-05-31T00:46:58.941Z,102023.83
2017-05-31T00:49:25.270Z,102020.69
2017-05-31T00:51:51.630Z,102024.78
2017-05-31T01:06:04.058Z,102033.45
2017-05-31T01:26:10.258Z,102052.51
2017-05-31T01:28:36.555Z,102045.81
2017-05-31T01:31:02.827Z,102047.16
2017-05-31T01:33:29.122Z,102052.12
2017-05-31T01:35:55.447Z,102046.73
2017-05-31T01:47:11.650Z,102042.96
2017-05-31T01:49:37.930Z,102045.22
2017-05-31T01:52:04.386Z,102044.79
2017-05-31T02:06:16.674Z,102055.72
2017-05-31T02:08:48.903Z,102048.55
2017-05-31T02:11:15.413Z,102045.52
2017-05-31T02:13:41.727Z,102052.20
2017-05-31T02:16:08.100Z,102058.52
2017-05-31T02:18:34.364Z,102051.81
2017-05-31T02:21:00.634Z,102049.52
2017-05-31T02:26:23.540Z,102059.56
2017-05-31T02:28:50.005Z,102059.12
2017-05-31T02:31:16.318Z,102061.34
2017-05-31T02:33:42.590Z,102056.48
2017-05-31T02:36:08.909Z,102052.50
2017-05-31T02:47:24.574Z,102067.41
2017-05-31T02:49:51.045Z,102068.38
2017-05-31T02:52:17.343Z,102069.72
2017-05-31T03:06:29.679Z,102074.81
2017-05-31T03:14:54.778Z,102082.51
2017-05-31T03:17:21.140Z,102082.55
2017-05-31T03:19:47.430Z,102087.90
2017-05-31T03:22:13.704Z,102087.47
2017-05-31T03:27:36.591Z,102089.30
2017-05-31T03:30:02.854Z,102096.56
2017-05-31T03:32:29.168Z,102095.20
2017-05-31T03:34:55.549Z,102097.47
2017-05-31T03:37:21.845Z,102094.82
2017-05-31T03:39:54.079Z,102097.95
2017-05-31T03:42:20.471Z,102094.91
2017-05-31T03:44:46.748Z,102092.26
2017-05-31T03:47:13.007Z,102098.04
2017-05-31T03:49:39.309Z,102099.00
2017-05-31T03:52:05.622Z,102097.27
2017-05-31T04:06:17.943Z,102111.66
2017-05-31T04:26:23.342Z,102121.23
2017-05-31T04:28:49.794Z,102118.80
2017-05-31T04:31:16.055Z,102120.84
2017-05-31T04:33:42.350Z,102123.97
2017-05-31T04:36:08.715Z,102126.31
2017-05-31T04:47:24.367Z,102133.05
2017-05-31T04:49:50.662Z,102134.41
2017-05-31T04:52:16.943Z,102129.92
2017-05-31T05:06:29.518Z,102155.62
2017-05-31T05:14:54.868Z,102167.70
2017-05-31T05:17:21.207Z,102168.18
2017-05-31T05:19:47.508Z,102170.44
2017-05-31T05:22:13.802Z,102170.92
2017-05-31T05:27:54.210Z,102171.35
2017-05-31T05:30:22.550Z,102174.09
2017-05-31T05:32:48.869Z,102175.05
2017-05-31T05:35:15.147Z,102175.92
2017-05-31T05:37:41.436Z,102173.74
2017-05-31T05:48:57.351Z,102181.39
2017-05-31T05:51:23.794Z,102180.91
2017-05-31T05:56:52.382Z,102193.69
2017-05-31T05:59:18.678Z,102196.43
2017-05-31T06:01:44.822Z,102194.65
2017-05-31T06:04:11.008Z,102192.00
2017-05-31T06:06:37.166Z,102201.43
2017-05-31T06:09:03.425Z,102201.47
2017-05-31T06:11:29.686Z,102203.34
2017-05-31T06:13:56.026Z,102203.38
2017-05-31T06:16:22.180Z,102201.52
2017-05-31T06:18:48.461Z,102206.13
2017-05-31T06:21:14.658Z,102207.95
2017-05-31T06:23:40.932Z,102210.30
2017-05-31T06:29:03.646Z,102212.69
2017-05-31T06:31:29.790Z,102214.13
2017-05-31T06:33:55.998Z,102216.94
2017-05-31T06:36:23.070Z,102217.03
2017-05-31T06:38:55.114Z,102219.80
2017-05-31T06:41:21.374Z,102219.67
2017-05-31T06:43:47.573Z,102226.41
2017-05-31T06:46:13.742Z,102230.06
2017-05-31T06:48:39.960Z,102230.80
2017-05-31T06:51:06.133Z,102223.20
2017-05-31T06:53:32.382Z,102227.63
2017-05-31T07:04:53.914Z,102239.24
2017-05-31T07:07:20.103Z,102251.67
2017-05-31T07:09:46.261Z,102247.50
2017-05-31T07:12:12.693Z,102252.81
2017-05-31T07:14:38.910Z,102253.55
2017-05-31T07:17:05.109Z,102260.69
2017-05-31T07:19:31.289Z,102261.47
2017-05-31T07:21:57.692Z,102262.34
2017-05-31T07:30:17.321Z,102272.38
2017-05-31T07:32:43.489Z,102270.12
2017-05-31T07:35:09.768Z,102269.98
2017-05-31T07:37:35.930Z,102271.30
2017-05-31T07:49:19.039Z,102275.08
2017-05-31T07:51:45.190Z,102284.00
2017-05-31T08:08:56.969Z,102289.20
2017-05-31T08:29:02.088Z,102289.50
2017-05-31T08:31:28.273Z,102288.50
2017-05-31T08:33:54.473Z,102292.86
2017-05-31T08:36:20.646Z,102294.03
2017-05-31T08:38:46.797Z,102293.95
2017-05-31T08:50:02.339Z,102299.08
2017-05-31T08:52:29.349Z,102309.04
2017-05-31T09:00:54.436Z,102308.86
2017-05-31T09:03:20.744Z,102300.86
2017-05-31T09:05:46.903Z,102310.34
2017-05-31T09:08:13.854Z,102307.73
2017-05-31T09:10:40.850Z,102306.91
2017-05-31T09:13:07.013Z,102303.95
2017-05-31T09:15:33.262Z,102308.08
2017-05-31T09:17:59.450Z,102311.78
2017-05-31T09:20:25.637Z,102316.21
2017-05-31T09:22:51.825Z,102311.64
2017-05-31T09:31:11.450Z,102310.69
2017-05-31T09:33:37.661Z,102312.04
2017-05-31T09:36:03.871Z,102304.34
2017-05-31T09:38:30.410Z,102310.52
2017-05-31T09:46:55.510Z,102313.95
2017-05-31T09:49:21.729Z,102308.16
2017-05-31T09:51:47.935Z,102317.13
2017-05-31T09:54:14.196Z,102317.52
2017-05-31T10:11:22.910Z,102316.34
2017-05-31T10:13:49.068Z,102319.04
2017-05-31T10:16:16.016Z,102319.87
2017-05-31T10:18:42.954Z,102320.05
2017-05-31T10:21:09.139Z,102323.08
2017-05-31T10:23:35.418Z,102318.04
2017-05-31T10:31:54.621Z,102316.09
2017-05-31T10:34:20.835Z,102320.61
2017-05-31T10:36:47.063Z,102315.13
2017-05-31T10:39:13.239Z,102319.78
2017-05-31T10:50:53.762Z,102315.42
2017-05-31T10:53:19.955Z,102307.65
2017-05-31T10:55:51.938Z,102304.55
2017-05-31T10:58:18.093Z,102312.13
2017-05-31T11:00:44.347Z,102303.69
2017-05-31T11:03:10.605Z,102308.86
2017-05-31T11:05:36.793Z,102306.94
2017-05-31T11:08:02.988Z,102306.42
2017-05-31T11:10:29.154Z,102300.11
2017-05-31T11:12:55.402Z,102311.55
2017-05-31T11:15:21.547Z,102315.30
2017-05-31T11:17:47.732Z,102306.07
2017-05-31T11:20:13.922Z,102295.63
2017-05-31T11:22:40.096Z,102298.59
2017-05-31T11:25:06.389Z,102302.11
2017-05-31T11:30:29.746Z,102302.28
2017-05-31T11:32:55.936Z,102301.02
2017-05-31T11:35:22.097Z,102301.02
2017-05-31T11:37:48.249Z,102304.02
2017-05-31T11:40:14.500Z,102307.81
2017-05-31T11:51:30.178Z,102304.02
2017-05-31T11:53:56.402Z,102300.98
2017-05-31T12:11:05.123Z,102302.84
2017-05-31T12:13:31.280Z,102290.13
2017-05-31T12:15:57.464Z,102287.42
2017-05-31T12:18:23.608Z,102283.28
2017-05-31T12:20:49.800Z,102289.55
2017-05-31T12:23:16.026Z,102286.16
2017-05-31T12:25:42.237Z,102290.59
2017-05-31T12:31:05.179Z,102279.67
2017-05-31T12:33:31.346Z,102282.26
2017-05-31T12:35:57.522Z,102281.66
2017-05-31T12:38:23.669Z,102278.36
2017-05-31T12:40:49.886Z,102284.58
2017-05-31T12:52:05.629Z,102282.48
2017-05-31T12:54:31.861Z,102280.74
2017-05-31T13:02:57.050Z,102287.22
2017-05-31T13:05:23.242Z,102285.18
2017-05-31T13:07:49.397Z,102271.13
2017-05-31T13:10:15.585Z,102281.13
2017-05-31T13:12:41.743Z,102280.61
2017-05-31T13:15:08.022Z,102278.37
2017-05-31T13:17:34.661Z,102279.11
2017-05-31T13:20:00.918Z,102270.92
2017-05-31T13:22:27.283Z,102277.89
2017-05-31T13:24:53.483Z,102274.42
2017-05-31T13:33:13.171Z,102270.38
2017-05-31T13:35:39.506Z,102269.73
2017-05-31T13:38:05.761Z,102277.36
2017-05-31T13:40:31.965Z,102274.31
2017-05-31T13:48:57.825Z,102264.77
2017-05-31T13:51:24.019Z,102271.25
2017-05-31T13:53:50.338Z,102266.28
2017-05-31T13:56:16.537Z,102263.93
2017-05-31T14:13:27.970Z,102255.30
2017-05-31T14:15:54.210Z,102252.75
2017-05-31T14:18:20.371Z,102251.55
2017-05-31T14:20:46.565Z,102256.47
2017-05-31T14:23:12.726Z,102254.00
2017-05-31T14:25:38.891Z,102249.77
2017-05-31T14:33:58.090Z,102242.68
2017-05-31T14:36:24.255Z,102248.90
2017-05-31T14:38:50.419Z,102246.22
2017-05-31T14:41:16.577Z,102252.84
2017-05-31T14:52:59.774Z,102252.27
2017-05-31T14:55:26.218Z,102248.19
2017-05-31T14:57:58.446Z,102251.83
2017-05-31T15:00:24.630Z,102243.64
2017-05-31T15:02:50.814Z,102243.05
2017-05-31T15:05:17.030Z,102239.64
2017-05-31T15:07:43.259Z,102238.30
2017-05-31T15:10:09.426Z,102237.83
2017-05-31T15:12:35.709Z,102240.55
2017-05-31T15:15:01.893Z,102244.92
2017-05-31T15:17:28.119Z,102245.95
2017-05-31T15:19:54.380Z,102247.82
2017-05-31T15:22:20.551Z,102250.05
2017-05-31T15:24:46.924Z,102254.34
2017-05-31T15:33:06.092Z,102253.93
2017-05-31T15:35:32.326Z,102255.28
2017-05-31T15:37:58.678Z,102262.23
2017-05-31T15:40:24.851Z,102259.49
2017-05-31T15:42:56.905Z,102249.47
2017-05-31T15:45:23.112Z,102257.94
2017-05-31T15:47:49.356Z,102258.62
2017-05-31T15:50:15.517Z,102255.05
2017-05-31T15:52:41.688Z,102252.17
2017-05-31T15:55:07.857Z,102255.99
2017-05-31T16:12:16.455Z,102264.06
2017-05-31T16:32:21.457Z,102275.66
2017-05-31T16:34:47.623Z,102275.53
2017-05-31T16:37:13.818Z,102274.23
2017-05-31T16:39:39.997Z,102271.69
2017-05-31T16:42:06.223Z,102273.38
2017-05-31T16:53:21.966Z,102269.26
2017-05-31T16:55:48.179Z,102275.62
2017-05-31T17:13:00.243Z,102272.69
2017-05-31T17:15:27.206Z,102279.06
2017-05-31T17:17:53.637Z,102283.21
2017-05-31T17:20:20.298Z,102282.48
2017-05-31T17:22:46.578Z,102289.70
2017-05-31T17:25:12.759Z,102286.09
2017-05-31T17:27:38.984Z,102296.42
2017-05-31T17:33:01.616Z,102291.67
2017-05-31T17:35:27.889Z,102300.99
2017-05-31T17:37:54.137Z,102303.78
2017-05-31T17:40:20.358Z,102314.05
2017-05-31T17:42:46.573Z,102312.14
2017-05-31T17:54:02.407Z,102308.16
2017-05-31T17:56:28.676Z,102312.12
2017-05-31T17:59:01.631Z,102309.42
2017-05-31T18:01:27.812Z,102306.78
2017-05-31T18:03:54.030Z,102306.38
2017-05-31T18:06:20.246Z,102305.13
2017-05-31T18:08:46.538Z,102309.60
2017-05-31T18:11:12.694Z,102311.17
2017-05-31T18:13:38.883Z,102311.30
2017-05-31T18:16:05.070Z,102307.20
2017-05-31T18:18:31.261Z,102316.70
2017-05-31T18:20:57.463Z,102316.39
2017-05-31T18:23:23.627Z,102310.00
2017-05-31T18:25:49.901Z,102312.03
2017-05-31T18:34:10.237Z,102315.69
2017-05-31T18:36:36.444Z,102316.30
2017-05-31T18:39:02.716Z,102315.51
2017-05-31T18:41:29.010Z,102319.65
2017-05-31T18:46:59.644Z,102321.89
2017-05-31T18:49:25.926Z,102322.25
2017-05-31T18:51:53.007Z,102324.75
2017-05-31T18:54:19.205Z,102322.70
2017-05-31T18:56:45.403Z,102323.69
2017-05-31T19:13:56.111Z,102315.31
2017-05-31T19:16:22.282Z,102325.72
2017-05-31T19:18:48.456Z,102317.02
2017-05-31T19:21:14.680Z,102320.69
2017-05-31T19:23:41.087Z,102329.84
2017-05-31T19:26:07.271Z,102322.39
2017-05-31T19:28:33.582Z,102322.74
2017-05-31T19:33:57.635Z,102333.52
2017-05-31T19:36:24.104Z,102325.04
2017-05-31T19:38:50.260Z,102329.16
2017-05-31T19:41:16.834Z,102331.21
2017-05-31T19:52:58.440Z,102337.50
2017-05-31T19:55:25.038Z,102337.05
2017-05-31T19:57:51.412Z,102335.11
2017-05-31T20:12:10.347Z,102333.76
2017-05-31T20:32:24.360Z,102352.81
2017-05-31T20:34:52.626Z,102359.50
2017-05-31T20:37:20.179Z,102358.43
2017-05-31T20:39:46.417Z,102354.95
2017-05-31T20:42:14.926Z,102359.34
2017-05-31T20:53:32.554Z,102361.89
2017-05-31T20:55:58.782Z,102372.11
2017-05-31T20:58:24.965Z,102360.86
2017-05-31T21:12:42.066Z,102377.88
2017-05-31T21:27:01.155Z,102371.85
2017-05-31T21:32:24.725Z,102377.28
2017-05-31T21:34:50.963Z,102371.85
2017-05-31T21:37:17.901Z,102371.85
2017-05-31T21:39:44.073Z,102369.11
2017-05-31T21:42:10.279Z,102368.59
2017-05-31T21:53:27.190Z,102385.20
2017-05-31T21:55:53.376Z,102381.16
2017-05-31T21:58:19.611Z,102388.81
2017-05-31T22:12:31.804Z,102402.24
2017-05-31T22:15:04.135Z,102405.89
2017-05-31T22:17:30.330Z,102400.94
2017-05-31T22:19:56.497Z,102400.45
2017-05-31T22:22:22.806Z,102403.55
2017-05-31T22:24:49.046Z,102395.98
2017-05-31T22:27:15.922Z,102396.89
2017-05-31T22:29:42.103Z,102393.30
2017-05-31T22:32:08.300Z,102395.98
2017-05-31T22:34:34.470Z,102399.55
2017-05-31T22:37:00.673Z,102399.11
2017-05-31T22:39:26.960Z,102399.55
2017-05-31T22:41:53.153Z,102398.23
2017-05-31T22:44:19.367Z,102396.89
2017-05-31T22:52:38.541Z,102408.12
2017-05-31T22:55:04.758Z,102398.23
2017-05-31T22:57:31.022Z,102396.47
2017-05-31T23:00:03.130Z,102394.20
2017-05-31T23:02:29.566Z,102392.90
2017-05-31T23:04:56.191Z,102399.59
2017-05-31T23:07:22.399Z,102392.41
2017-05-31T23:09:48.559Z,102388.85
2017-05-31T23:12:14.773Z,102387.94
2017-05-31T23:14:41.013Z,102385.77
2017-05-31T23:26:03.559Z,102384.50
2017-05-31T23:28:29.742Z,102379.55
2017-05-31T23:31:01.886Z,102379.11
2017-05-31T23:33:28.151Z,102386.32
2017-05-31T23:35:54.407Z,102383.19
2017-05-31T23:38:20.795Z,102386.76
2017-05-31T23:40:47.014Z,102391.23
2017-05-31T23:43:13.208Z,102389.41
2017-05-31T23:54:29.338Z,102383.59
2017-05-31T23:56:55.522Z,102379.15
2017-05-31T23:59:21.734Z,102377.80
